Time;durP1;ratioP1;P1;durP2;ratioP2;P2;SDS_P1;SDS_P2;PMS_P1;PMS_P2;Temp;Humidity;BMP_temperature;BMP_pressure;BME280_temperature;BME280_humidity;BME280_pressure;Samples;Min_cycle;Max_cycle;Signal;HPM_P1;HPM_P2
2021/03/15 00:00:10;;;;;;;1.42;0.40;;;;;;;;;;5051276;28;20190;-64
2021/03/15 00:02:56;;;;;;;0.73;0.32;;;;;;;;;;5036896;28;20138;-63
2021/03/15 00:05:41;;;;;;;1.75;0.50;;;;;;;;;;5051573;28;20044;-64
2021/03/15 00:08:27;;;;;;;1.05;0.47;;;;;;;;;;5052071;28;20048;-64
2021/03/15 00:11:12;;;;;;;2.50;0.60;;;;;;;;;;5050989;28;20048;-64
2021/03/15 00:13:57;;;;;;;1.52;0.52;;;;;;;;;;5049865;28;20045;-63
2021/03/15 00:16:43;;;;;;;4.03;0.80;;;;;;;;;;5050883;28;20091;-64
2021/03/15 00:19:28;;;;;;;1.67;0.70;;;;;;;;;;5051781;28;20079;-63
2021/03/15 00:22:14;;;;;;;1.52;0.90;;;;;;;;;;5051032;28;20052;-63
2021/03/15 00:24:59;;;;;;;1.80;0.68;;;;;;;;;;5051411;28;20084;-63
2021/03/15 00:27:44;;;;;;;2.53;1.00;;;;;;;;;;5051675;28;20053;-63
2021/03/15 00:30:30;;;;;;;2.70;0.85;;;;;;;;;;5051564;28;20041;-64
2021/03/15 00:33:16;;;;;;;4.00;1.17;;;;;;;;;;5053482;28;20049;-63
2021/03/15 00:36:01;;;;;;;2.70;1.00;;;;;;;;;;5055406;28;20098;-63
2021/03/15 00:38:46;;;;;;;2.35;1.05;;;;;;;;;;5055328;28;20040;-64
2021/03/15 00:41:32;;;;;;;4.25;1.40;;;;;;;;;;5045055;28;21175;-63
2021/03/15 00:44:17;;;;;;;1.92;1.50;;;;;;;;;;5055276;28;20045;-63
2021/03/15 00:47:03;;;;;;;3.95;1.00;;;;;;;;;;5055433;28;20049;-64
2021/03/15 00:49:48;;;;;;;1.95;1.00;;;;;;;;;;5040157;28;20454;-63
2021/03/15 00:52:34;;;;;;;2.60;1.20;;;;;;;;;;5054294;28;20132;-63
2021/03/15 00:55:19;;;;;;;3.25;1.00;;;;;;;;;;5054858;28;20519;-63
2021/03/15 00:58:05;;;;;;;1.70;0.80;;;;;;;;;;5039914;28;20484;-63
2021/03/15 01:00:51;;;;;;;1.17;0.70;;;;;;;;;;5039940;28;20529;-63
2021/03/15 01:03:41;;;;;;;1.63;0.85;;;;;;;;;;5039205;28;20045;-63
2021/03/15 01:06:26;;;;;;;2.17;1.02;;;;;;;;;;5039581;28;20080;-63
2021/03/15 01:09:19;;;;;;;2.67;0.88;;;;;;;;;;5055000;28;20160;-64
2021/03/15 01:12:12;;;;;;;;;;;;;;;;;;5055290;28;20047;-64
2021/03/15 01:14:57;;;;;;;2.55;0.85;;;;;;;;;;5019981;28;19928;-64
2021/03/15 01:17:49;;;;;;;3.25;0.90;;;;;;;;;;5034927;28;20053;-64
2021/03/15 01:20:36;;;;;;;1.92;0.60;;;;;;;;;;5020021;28;20041;-64
2021/03/15 01:23:21;;;;;;;3.45;0.60;;;;;;;;;;5025349;28;20392;-64
2021/03/15 01:26:06;;;;;;;2.22;0.90;;;;;;;;;;5054544;28;20049;-63
2021/03/15 01:28:52;;;;;;;1.73;0.70;;;;;;;;;;5054605;28;20068;-64
2021/03/15 01:31:37;;;;;;;2.05;0.80;;;;;;;;;;5054592;28;20045;-64
2021/03/15 01:34:23;;;;;;;2.42;1.00;;;;;;;;;;5053240;28;20099;-64
2021/03/15 01:37:08;;;;;;;1.20;0.60;;;;;;;;;;5054267;28;20480;-63
2021/03/15 01:39:53;;;;;;;1.23;0.80;;;;;;;;;;5054453;28;20087;-64
2021/03/15 01:42:39;;;;;;;2.05;0.73;;;;;;;;;;5054421;28;20049;-65
2021/03/15 01:45:24;;;;;;;4.13;0.90;;;;;;;;;;5053128;28;20053;-64
2021/03/15 01:48:13;;;;;;;2.03;0.88;;;;;;;;;;5054177;28;20084;-64
2021/03/15 01:50:58;;;;;;;1.25;0.82;;;;;;;;;;5054248;28;20045;-64
2021/03/15 01:53:44;;;;;;;2.03;0.93;;;;;;;;;;5053152;28;20045;-64
2021/03/15 01:56:29;;;;;;;2.72;1.10;;;;;;;;;;5053957;28;20056;-65
2021/03/15 01:59:16;;;;;;;3.25;1.20;;;;;;;;;;5054016;28;20041;-65
2021/03/15 02:02:01;;;;;;;3.00;1.10;;;;;;;;;;5052277;28;20519;-64
2021/03/15 02:04:47;;;;;;;4.65;1.40;;;;;;;;;;5053750;28;20522;-65
2021/03/15 02:07:32;;;;;;;4.45;1.48;;;;;;;;;;5054004;28;20052;-65
2021/03/15 02:10:18;;;;;;;4.65;1.77;;;;;;;;;;5053892;28;20052;-65
2021/03/15 02:13:22;;;;;;;3.45;1.58;;;;;;;;;;5052678;28;20128;-65
2021/03/15 02:16:11;;;;;;;5.43;1.73;;;;;;;;;;5053397;28;20048;-64
2021/03/15 02:18:59;;;;;;;4.43;1.95;;;;;;;;;;5053111;28;20055;-65
2021/03/15 02:22:02;;;;;;;3.80;1.70;;;;;;;;;;5052760;28;20550;-65
2021/03/15 02:25:06;;;;;;;7.35;1.90;;;;;;;;;;5053304;28;20053;-66
2021/03/15 02:28:10;;;;;;;5.85;1.90;;;;;;;;;;5038267;28;20049;-65
2021/03/15 02:31:02;;;;;;;2.90;1.90;;;;;;;;;;5053412;28;20142;-64
2021/03/15 02:33:56;;;;;;;6.50;1.50;;;;;;;;;;5052485;28;20045;-65
2021/03/15 02:36:42;;;;;;;4.82;1.60;;;;;;;;;;5053159;28;20045;-65
2021/03/15 02:39:28;;;;;;;5.70;1.48;;;;;;;;;;5098501;22;20465;-62
2021/03/15 02:42:15;;;;;;;5.25;1.67;;;;;;;;;;5053616;28;20131;-61
2021/03/15 02:45:00;;;;;;;2.65;1.80;;;;;;;;;;5050862;28;20415;-63
2021/03/15 02:47:45;;;;;;;4.20;1.67;;;;;;;;;;5052259;28;20040;-62
2021/03/15 02:50:30;;;;;;;6.93;1.90;;;;;;;;;;5033528;28;20042;-62
2021/03/15 02:53:16;;;;;;;4.22;1.83;;;;;;;;;;5031161;28;20049;-61
2021/03/15 02:56:03;;;;;;;5.47;1.67;;;;;;;;;;5032167;28;20407;-61
2021/03/15 02:58:48;;;;;;;6.05;1.83;;;;;;;;;;5032027;28;20049;-61
2021/03/15 03:01:34;;;;;;;4.68;2.20;;;;;;;;;;5032254;28;20067;-61
2021/03/15 03:04:19;;;;;;;8.10;2.55;;;;;;;;;;5030818;28;20045;-63
2021/03/15 03:07:04;;;;;;;6.80;2.10;;;;;;;;;;5017921;28;20049;-64
2021/03/15 03:09:50;;;;;;;7.28;2.58;;;;;;;;;;5031381;28;20496;-61
2021/03/15 03:12:35;;;;;;;6.70;3.08;;;;;;;;;;5030466;28;20136;-61
2021/03/15 03:15:22;;;;;;;5.97;2.78;;;;;;;;;;5030205;28;20492;-62
2021/03/15 03:18:07;;;;;;;6.95;3.33;;;;;;;;;;5032219;28;20041;-62
2021/03/15 03:20:56;;;;;;;11.20;3.47;;;;;;;;;;5032717;28;20435;-64
2021/03/15 03:23:41;;;;;;;9.18;2.60;;;;;;;;;;5032449;28;20045;-63
2021/03/15 03:26:27;;;;;;;6.90;2.90;;;;;;;;;;5011719;28;20054;-61
2021/03/15 03:29:14;;;;;;;9.80;3.17;;;;;;;;;;5012658;28;20507;-61
2021/03/15 03:31:59;;;;;;;9.27;3.47;;;;;;;;;;5025494;28;20080;-63
2021/03/15 03:34:44;;;;;;;14.52;3.22;;;;;;;;;;5015654;28;20514;-61
2021/03/15 03:37:30;;;;;;;8.35;3.47;;;;;;;;;;5032353;28;20495;-62
2021/03/15 03:40:15;;;;;;;8.43;3.90;;;;;;;;;;5032140;28;20046;-64
2021/03/15 03:43:00;;;;;;;14.20;4.78;;;;;;;;;;5030695;28;20507;-62
2021/03/15 03:45:46;;;;;;;12.77;4.38;;;;;;;;;;5030057;28;20499;-62
2021/03/15 03:48:31;;;;;;;13.35;5.03;;;;;;;;;;5032105;28;20124;-62
2021/03/15 03:51:17;;;;;;;12.15;4.57;;;;;;;;;;5030564;28;20171;-62
2021/03/15 03:54:12;;;;;;;18.02;5.00;;;;;;;;;;5031273;28;20119;-63
2021/03/15 03:57:05;;;;;;;13.70;4.43;;;;;;;;;;5030102;28;20045;-62
2021/03/15 03:59:51;;;;;;;15.18;5.00;;;;;;;;;;5031022;28;20518;-63
2021/03/15 04:02:39;;;;;;;15.00;5.40;;;;;;;;;;5032033;28;20076;-63
2021/03/15 04:05:30;;;;;;;14.35;5.50;;;;;;;;;;5031026;28;20144;-62
2021/03/15 04:08:17;;;;;;;17.48;6.15;;;;;;;;;;5018728;28;20057;-63
2021/03/15 04:11:02;;;;;;;21.83;6.60;;;;;;;;;;5031695;28;20085;-63
2021/03/15 04:13:51;;;;;;;25.90;6.57;;;;;;;;;;5018568;28;20053;-63
2021/03/15 04:16:37;;;;;;;22.73;7.53;;;;;;;;;;5037788;28;20049;-63
2021/03/15 04:19:24;;;;;;;17.40;5.90;;;;;;;;;;5037375;28;20427;-63
2021/03/15 04:22:10;;;;;;;17.38;7.68;;;;;;;;;;5037410;28;20054;-63
2021/03/15 04:24:59;;;;;;;20.48;6.40;;;;;;;;;;5038206;28;20581;-63
2021/03/15 04:27:45;;;;;;;21.42;7.45;;;;;;;;;;5036535;28;20049;-63
2021/03/15 04:30:30;;;;;;;21.20;6.38;;;;;;;;;;5038368;28;20049;-63
2021/03/15 04:33:15;;;;;;;17.25;7.00;;;;;;;;;;5037558;28;20053;-63
2021/03/15 04:36:00;;;;;;;19.98;6.80;;;;;;;;;;5037158;28;20053;-63
2021/03/15 04:38:46;;;;;;;26.02;7.35;;;;;;;;;;5036348;28;20038;-63
2021/03/15 04:41:31;;;;;;;19.73;7.50;;;;;;;;;;5038309;28;20415;-63
2021/03/15 04:44:16;;;;;;;21.38;6.68;;;;;;;;;;5036381;28;20705;-63
2021/03/15 04:47:02;;;;;;;26.52;7.50;;;;;;;;;;5035495;28;20068;-63
2021/03/15 04:49:48;;;;;;;26.02;7.05;;;;;;;;;;5037271;28;20045;-63
2021/03/15 04:52:34;;;;;;;23.05;7.47;;;;;;;;;;5038098;28;20045;-63
2021/03/15 04:55:19;;;;;;;24.30;7.05;;;;;;;;;;5036021;28;20057;-63
2021/03/15 04:58:05;;;;;;;23.95;8.73;;;;;;;;;;5038168;28;20091;-63
2021/03/15 05:00:51;;;;;;;24.15;6.97;;;;;;;;;;5037111;28;20664;-63
2021/03/15 05:03:36;;;;;;;24.40;7.57;;;;;;;;;;5037053;28;20124;-63
2021/03/15 05:06:21;;;;;;;21.60;5.88;;;;;;;;;;5037126;28;20049;-62
2021/03/15 05:09:08;;;;;;;19.38;6.63;;;;;;;;;;5038013;28;20091;-63
2021/03/15 05:11:53;;;;;;;23.40;7.18;;;;;;;;;;5037876;28;20041;-63
2021/03/15 05:14:39;;;;;;;23.55;6.35;;;;;;;;;;5037762;28;20042;-63
2021/03/15 05:17:24;;;;;;;26.13;7.18;;;;;;;;;;5036173;28;20053;-63
2021/03/15 05:20:14;;;;;;;22.83;7.63;;;;;;;;;;5034322;28;20087;-65
2021/03/15 05:22:59;;;;;;;20.08;5.38;;;;;;;;;;5035619;28;20052;-63
2021/03/15 05:25:45;;;;;;;27.98;6.38;;;;;;;;;;5034423;28;20049;-64
2021/03/15 05:28:30;;;;;;;22.17;5.45;;;;;;;;;;5034842;28;20045;-64
2021/03/15 05:31:15;;;;;;;23.67;5.70;;;;;;;;;;5034338;28;20045;-64
2021/03/15 05:34:01;;;;;;;27.00;5.60;;;;;;;;;;5034888;28;20045;-64
2021/03/15 05:36:46;;;;;;;20.13;6.38;;;;;;;;;;5033309;28;20049;-64
2021/03/15 05:39:32;;;;;;;30.85;5.35;;;;;;;;;;5034436;28;20045;-63
2021/03/15 05:42:24;;;;;;;21.27;5.13;;;;;;;;;;5033999;28;20053;-63
2021/03/15 05:45:15;;;;;;;25.73;5.40;;;;;;;;;;5034133;28;20072;-63
2021/03/15 05:48:09;;;;;;;29.45;5.65;;;;;;;;;;5033674;28;20085;-63
2021/03/15 05:51:04;;;;;;;24.02;4.88;;;;;;;;;;5034492;28;20163;-63
2021/03/15 05:53:49;;;;;;;25.13;5.68;;;;;;;;;;5033142;28;20099;-63
2021/03/15 05:56:53;;;;;;;14.90;4.20;;;;;;;;;;5034170;28;20056;-63
2021/03/15 05:59:45;;;;;;;24.25;5.95;;;;;;;;;;5033242;28;20049;-63
2021/03/15 06:02:48;;;;;;;24.08;4.40;;;;;;;;;;5034512;28;20056;-63
2021/03/15 06:05:35;;;;;;;28.48;6.43;;;;;;;;;;5032882;28;20080;-63
2021/03/15 06:08:23;;;;;;;25.55;4.50;;;;;;;;;;5032000;28;20046;-63
2021/03/15 06:11:12;;;;;;;23.73;4.07;;;;;;;;;;5034074;28;20049;-63
2021/03/15 06:13:57;;;;;;;21.70;4.13;;;;;;;;;;5033541;28;20041;-63
2021/03/15 06:16:42;;;;;;;23.27;4.05;;;;;;;;;;5031788;28;20045;-63
2021/03/15 06:19:28;;;;;;;18.63;4.55;;;;;;;;;;5033810;28;20049;-63
2021/03/15 06:22:13;;;;;;;27.95;4.40;;;;;;;;;;5032419;28;20501;-64
2021/03/15 06:24:58;;;;;;;24.30;5.05;;;;;;;;;;5032042;28;20049;-63
2021/03/15 06:27:43;;;;;;;24.75;3.75;;;;;;;;;;5027452;28;20142;-63
2021/03/15 06:30:28;;;;;;;28.52;5.68;;;;;;;;;;5011845;28;20064;-63
2021/03/15 06:33:14;;;;;;;25.42;4.13;;;;;;;;;;5029102;28;20046;-63
2021/03/15 06:36:01;;;;;;;27.40;4.63;;;;;;;;;;5032488;28;20052;-63
2021/03/15 06:38:46;;;;;;;24.50;3.47;;;;;;;;;;5033389;28;20077;-64
2021/03/15 06:41:32;;;;;;;24.17;4.78;;;;;;;;;;5032266;28;20140;-63
2021/03/15 06:44:17;;;;;;;18.60;3.75;;;;;;;;;;5033189;28;20056;-63
2021/03/15 06:47:02;;;;;;;20.00;3.55;;;;;;;;;;5031460;28;20400;-63
2021/03/15 06:49:47;;;;;;;22.98;4.03;;;;;;;;;;5032628;28;20049;-63
2021/03/15 06:52:39;;;;;;;25.77;5.47;;;;;;;;;;5032032;28;20041;-63
2021/03/15 06:55:29;;;;;;;26.88;6.15;;;;;;;;;;5031121;28;20073;-63
2021/03/15 06:58:24;;;;;;;18.33;3.13;;;;;;;;;;5033162;28;20041;-63
2021/03/15 07:01:28;;;;;;;21.80;3.20;;;;;;;;;;5032890;28;20480;-63
2021/03/15 07:04:13;;;;;;;22.23;3.95;;;;;;;;;;5032731;28;20057;-63
2021/03/15 07:07:00;;;;;;;19.98;4.20;;;;;;;;;;5031854;28;20496;-63
2021/03/15 07:09:45;;;;;;;19.70;3.30;;;;;;;;;;5033039;28;20057;-63
2021/03/15 07:12:30;;;;;;;21.73;3.53;;;;;;;;;;5032803;28;20135;-63
2021/03/15 07:15:16;;;;;;;20.55;4.38;;;;;;;;;;5032449;28;20045;-63
2021/03/15 07:18:16;;;;;;;24.75;4.32;;;;;;;;;;5031459;28;20049;-63
2021/03/15 07:21:05;;;;;;;15.15;4.22;;;;;;;;;;5032636;28;20127;-63
2021/03/15 07:23:54;;;;;;;20.50;4.55;;;;;;;;;;5032466;28;20563;-63
2021/03/15 07:26:46;;;;;;;15.27;3.53;;;;;;;;;;5031365;28;20128;-63
2021/03/15 07:29:32;;;;;;;17.90;3.60;;;;;;;;;;5032599;28;20095;-63
2021/03/15 07:32:21;;;;;;;25.20;3.90;;;;;;;;;;5032431;28;20045;-63
2021/03/15 07:35:19;;;;;;;19.90;3.38;;;;;;;;;;5031217;28;20049;-64
2021/03/15 07:38:05;;;;;;;23.75;3.63;;;;;;;;;;5031283;28;20049;-64
2021/03/15 07:40:50;;;;;;;19.13;3.80;;;;;;;;;;5032292;28;20045;-63
2021/03/15 07:43:36;;;;;;;22.05;3.35;;;;;;;;;;5032264;28;20099;-63
2021/03/15 07:46:28;;;;;;;24.45;3.58;;;;;;;;;;5029968;28;20575;-63
2021/03/15 07:49:27;;;;;;;22.55;4.50;;;;;;;;;;5032296;28;20049;-63
2021/03/15 07:52:12;;;;;;;19.67;3.58;;;;;;;;;;5031211;28;20060;-63
2021/03/15 07:54:58;;;;;;;20.65;4.40;;;;;;;;;;5032051;28;20045;-64
2021/03/15 07:57:43;;;;;;;21.13;4.47;;;;;;;;;;5032227;28;20060;-63
2021/03/15 08:00:29;;;;;;;21.15;3.42;;;;;;;;;;5031194;28;20050;-64
2021/03/15 08:03:14;;;;;;;22.90;3.72;;;;;;;;;;5031365;28;20053;-63
2021/03/15 08:06:00;;;;;;;22.05;3.53;;;;;;;;;;5030062;28;20045;-63
2021/03/15 08:08:45;;;;;;;19.40;3.63;;;;;;;;;;5028144;28;20045;-63
2021/03/15 08:11:31;;;;;;;18.23;4.18;;;;;;;;;;5030826;28;20045;-64
2021/03/15 08:14:16;;;;;;;14.38;3.10;;;;;;;;;;5022407;28;20041;-63
2021/03/15 08:17:01;;;;;;;16.65;3.20;;;;;;;;;;5029550;28;20041;-63
2021/03/15 08:19:47;;;;;;;14.05;3.47;;;;;;;;;;5022232;28;20053;-63
2021/03/15 08:22:33;;;;;;;16.27;3.50;;;;;;;;;;5012212;28;20457;-63
2021/03/15 08:25:18;;;;;;;16.00;2.65;;;;;;;;;;5019334;28;20100;-63
2021/03/15 08:28:04;;;;;;;19.70;3.67;;;;;;;;;;5025928;28;20045;-63
2021/03/15 08:30:52;;;;;;;20.85;3.83;;;;;;;;;;5029762;28;20054;-63
2021/03/15 08:33:37;;;;;;;22.02;3.47;;;;;;;;;;5027920;28;20038;-63
2021/03/15 08:36:23;;;;;;;22.38;3.55;;;;;;;;;;5031566;28;20077;-63
2021/03/15 08:39:26;;;;;;;24.48;4.88;;;;;;;;;;5030531;23;20499;-63
2021/03/15 08:42:15;;;;;;;21.83;3.88;;;;;;;;;;5027884;28;20045;-63
2021/03/15 08:45:01;;;;;;;20.13;3.30;;;;;;;;;;5017426;28;20042;-63
2021/03/15 08:47:50;;;;;;;25.55;3.78;;;;;;;;;;5017494;28;20045;-63
2021/03/15 08:50:35;;;;;;;25.92;5.55;;;;;;;;;;5033898;28;20551;-63
2021/03/15 08:53:42;;;;;;;20.20;4.13;;;;;;;;;;5035435;28;20049;-63
2021/03/15 08:56:30;;;;;;;18.08;3.45;;;;;;;;;;5042047;28;20105;-63
2021/03/15 08:59:15;;;;;;;25.63;3.20;;;;;;;;;;5039476;28;20072;-63
2021/03/15 09:02:04;;;;;;;17.83;3.97;;;;;;;;;;5059755;28;20073;-64
2021/03/15 09:04:50;;;;;;;24.27;3.67;;;;;;;;;;5063989;28;20044;-63
2021/03/15 09:07:36;;;;;;;25.58;4.05;;;;;;;;;;5027886;28;20034;-63
2021/03/15 09:10:24;;;;;;;20.92;5.00;;;;;;;;;;5042037;28;20042;-62
2021/03/15 09:13:12;;;;;;;15.40;3.67;;;;;;;;;;5056535;28;20044;-63
2021/03/15 09:15:58;;;;;;;17.80;3.90;;;;;;;;;;5056451;28;20041;-63
2021/03/15 09:18:44;;;;;;;13.07;2.97;;;;;;;;;;5064534;28;20560;-63
2021/03/15 09:21:30;;;;;;;13.52;4.57;;;;;;;;;;5054318;28;20041;-63
2021/03/15 09:24:33;;;;;;;12.52;2.78;;;;;;;;;;5053688;28;20049;-63
2021/03/15 09:27:27;;;;;;;13.70;2.80;;;;;;;;;;5033440;28;20041;-62
2021/03/15 09:30:24;;;;;;;7.57;1.60;;;;;;;;;;5041051;28;20091;-62
2021/03/15 09:33:09;;;;;;;8.13;1.35;;;;;;;;;;5024091;28;20037;-62
2021/03/15 09:35:54;;;;;;;15.18;3.17;;;;;;;;;;5044194;28;20045;-63
2021/03/15 09:38:39;;;;;;;16.45;2.78;;;;;;;;;;5035348;28;20399;-62
2021/03/15 09:41:25;;;;;;;17.45;2.53;;;;;;;;;;5028790;28;20041;-62
2021/03/15 09:44:10;;;;;;;24.60;3.35;;;;;;;;;;5041196;28;20050;-63
2021/03/15 09:46:56;;;;;;;15.32;3.20;;;;;;;;;;5025137;28;20039;-63
2021/03/15 09:49:42;;;;;;;24.73;3.45;;;;;;;;;;5038313;28;20042;-62
2021/03/15 09:52:33;;;;;;;23.98;3.40;;;;;;;;;;5040138;28;20045;-63
2021/03/15 09:55:23;;;;;;;17.58;3.33;;;;;;;;;;5026422;28;20069;-63
2021/03/15 09:58:10;;;;;;;15.02;3.42;;;;;;;;;;5029373;28;20050;-62
2021/03/15 10:01:13;;;;;;;10.65;2.55;;;;;;;;;;5008332;28;20071;-62
2021/03/15 10:04:19;;;;;;;15.23;2.72;;;;;;;;;;5055789;28;20049;-63
2021/03/15 10:07:40;;;;;;;17.20;2.97;;;;;;;;;;5041788;28;20096;-62
2021/03/15 10:10:44;;;;;;;22.70;3.42;;;;;;;;;;5046715;28;20041;-63
2021/03/15 10:14:01;;;;;;;17.55;3.05;;;;;;;;;;5034418;28;20096;-63
2021/03/15 10:17:07;;;;;;;22.48;5.60;;;;;;;;;;5033396;28;20040;-63
2021/03/15 10:20:32;;;;;;;13.30;4.10;;;;;;;;;;4975429;28;20457;-63
2021/03/15 10:23:18;;;;;;;20.33;2.78;;;;;;;;;;4968621;28;20050;-63
2021/03/15 10:26:05;;;;;;;16.77;3.75;;;;;;;;;;5039693;28;20053;-63
2021/03/15 10:29:06;;;;;;;16.02;3.42;;;;;;;;;;5043750;28;20045;-63
2021/03/15 10:32:01;;;;;;;16.75;3.50;;;;;;;;;;5033702;28;20048;-63
2021/03/15 10:34:50;;;;;;;18.48;5.40;;;;;;;;;;5044784;28;20064;-62
2021/03/15 10:37:37;;;;;;;22.67;4.45;;;;;;;;;;5038896;28;20049;-63
2021/03/15 10:40:36;;;;;;;16.08;3.72;;;;;;;;;;5026580;28;20045;-62
2021/03/15 10:43:27;;;;;;;21.02;3.78;;;;;;;;;;5030583;28;20052;-63
2021/03/15 10:46:23;;;;;;;14.10;2.80;;;;;;;;;;5023069;28;20045;-62
2021/03/15 10:49:16;;;;;;;14.23;2.60;;;;;;;;;;5032928;28;20029;-64
2021/03/15 10:52:01;;;;;;;11.85;2.10;;;;;;;;;;5051467;28;20084;-63
2021/03/15 10:54:55;;;;;;;21.45;3.72;;;;;;;;;;5024740;28;20052;-64
2021/03/15 10:57:59;;;;;;;14.52;2.47;;;;;;;;;;5023624;28;20041;-62
2021/03/15 11:00:48;;;;;;;16.08;2.83;;;;;;;;;;5042847;28;20045;-63
2021/03/15 11:03:35;;;;;;;12.52;2.55;;;;;;;;;;5047448;28;20059;-64
2021/03/15 11:06:29;;;;;;;17.17;3.00;;;;;;;;;;5047516;28;20037;-63
2021/03/15 11:09:27;;;;;;;12.30;2.40;;;;;;;;;;5020913;28;20049;-64
2021/03/15 11:12:13;;;;;;;10.82;1.88;;;;;;;;;;5038893;28;20053;-63
2021/03/15 11:15:07;;;;;;;15.82;2.35;;;;;;;;;;5019947;28;20570;-63
2021/03/15 11:18:00;;;;;;;15.60;2.83;;;;;;;;;;5026083;28;20407;-64
2021/03/15 11:20:58;;;;;;;14.43;2.50;;;;;;;;;;5021553;28;20307;-63
2021/03/15 11:23:53;;;;;;;14.38;2.42;;;;;;;;;;5026599;28;20112;-63
2021/03/15 11:26:59;;;;;;;15.38;3.75;;;;;;;;;;5033590;28;20120;-64
2021/03/15 11:29:54;;;;;;;17.50;2.78;;;;;;;;;;5022854;28;20041;-65
2021/03/15 11:32:57;;;;;;;14.82;2.50;;;;;;;;;;5046217;28;20049;-63
2021/03/15 11:35:49;;;;;;;11.18;3.30;;;;;;;;;;5011425;28;20049;-63
2021/03/15 11:38:47;;;;;;;18.08;3.15;;;;;;;;;;5038151;28;20042;-64
2021/03/15 11:41:33;;;;;;;20.27;2.78;;;;;;;;;;5031922;28;20083;-63
2021/03/15 11:44:19;;;;;;;12.38;3.03;;;;;;;;;;5017076;28;20714;-68
2021/03/15 11:47:05;;;;;;;13.43;3.30;;;;;;;;;;5013036;28;20049;-65
2021/03/15 11:50:12;;;;;;;15.55;3.47;;;;;;;;;;5025621;28;20046;-64
2021/03/15 11:53:08;;;;;;;16.48;3.08;;;;;;;;;;5011073;28;20404;-63
2021/03/15 11:55:55;;;;;;;21.00;4.35;;;;;;;;;;5025226;28;20037;-63
2021/03/15 11:58:41;;;;;;;13.30;2.85;;;;;;;;;;5023835;28;20046;-63
2021/03/15 12:01:27;;;;;;;16.17;3.10;;;;;;;;;;5029539;28;20587;-63
2021/03/15 12:04:13;;;;;;;13.00;3.97;;;;;;;;;;5011778;28;20049;-64
2021/03/15 12:07:12;;;;;;;14.95;2.95;;;;;;;;;;5015025;28;20037;-63
2021/03/15 12:10:01;;;;;;;20.23;3.58;;;;;;;;;;5014911;28;20116;-63
2021/03/15 12:12:46;;;;;;;19.58;3.30;;;;;;;;;;5019089;28;20127;-64
2021/03/15 12:15:31;;;;;;;15.82;3.55;;;;;;;;;;5024116;28;20128;-63
2021/03/15 12:18:16;;;;;;;13.90;4.03;;;;;;;;;;5021752;28;20045;-64
2021/03/15 12:21:06;;;;;;;14.82;3.47;;;;;;;;;;5015443;28;20099;-64
2021/03/15 12:23:53;;;;;;;14.60;3.63;;;;;;;;;;5016757;28;20069;-63
2021/03/15 12:26:40;;;;;;;15.38;3.65;;;;;;;;;;5032960;28;20048;-66
2021/03/15 12:29:32;;;;;;;21.55;4.28;;;;;;;;;;5023108;28;20037;-67
2021/03/15 12:32:18;;;;;;;22.88;4.28;;;;;;;;;;5023728;28;20046;-63
2021/03/15 12:35:05;;;;;;;17.67;3.03;;;;;;;;;;5035608;28;20041;-65
2021/03/15 12:37:51;;;;;;;14.82;2.75;;;;;;;;;;5031623;28;20068;-64
2021/03/15 12:40:39;;;;;;;17.70;3.97;;;;;;;;;;5033590;28;20421;-64
2021/03/15 12:43:25;;;;;;;15.77;3.55;;;;;;;;;;5013675;28;20044;-65
2021/03/15 12:46:18;;;;;;;17.58;3.35;;;;;;;;;;5032221;28;20037;-65
2021/03/15 12:49:03;;;;;;;15.50;4.07;;;;;;;;;;5021365;28;20053;-63
2021/03/15 12:51:50;;;;;;;13.82;3.45;;;;;;;;;;5021117;28;20041;-63
2021/03/15 12:54:37;;;;;;;15.63;3.63;;;;;;;;;;5012622;28;20050;-63
2021/03/15 12:57:23;;;;;;;15.02;3.25;;;;;;;;;;5048310;28;20659;-63
2021/03/15 13:00:15;;;;;;;13.07;2.35;;;;;;;;;;5019525;28;20049;-63
2021/03/15 13:03:12;;;;;;;10.90;2.60;;;;;;;;;;5033904;28;20045;-63
2021/03/15 13:05:57;;;;;;;18.08;2.95;;;;;;;;;;5045803;28;20048;-64
2021/03/15 13:09:00;;;;;;;;;;;;;;;;;;5015128;28;20044;-61
2021/03/15 13:12:08;;;;;;;15.45;2.60;;;;;;;;;;5029022;28;20294;-66
2021/03/15 13:15:03;;;;;;;13.65;2.67;;;;;;;;;;5010491;28;20469;-63
2021/03/15 13:18:07;;;;;;;11.57;2.75;;;;;;;;;;5045176;28;20123;-63
2021/03/15 13:21:02;;;;;;;16.25;2.90;;;;;;;;;;5020556;28;20519;-64
2021/03/15 13:23:47;;;;;;;16.38;3.25;;;;;;;;;;5033595;28;20049;-63
2021/03/15 13:26:35;;;;;;;18.05;3.33;;;;;;;;;;5054586;28;20045;-63
2021/03/15 13:29:21;;;;;;;14.82;4.00;;;;;;;;;;5010442;28;20538;-62
2021/03/15 13:32:07;;;;;;;15.10;4.45;;;;;;;;;;5040241;28;20049;-63
2021/03/15 13:34:53;;;;;;;16.60;2.72;;;;;;;;;;5039914;28;20049;-63
2021/03/15 13:37:40;;;;;;;16.60;2.80;;;;;;;;;;5048255;28;20499;-63
2021/03/15 13:40:36;;;;;;;9.38;2.53;;;;;;;;;;5033163;28;20045;-61
2021/03/15 13:43:30;;;;;;;16.63;2.92;;;;;;;;;;5027463;28;20508;-63
2021/03/15 13:46:17;;;;;;;15.75;3.85;;;;;;;;;;5030571;28;20045;-63
2021/03/15 13:49:13;;;;;;;16.45;3.42;;;;;;;;;;5027637;28;20503;-63
2021/03/15 13:52:07;;;;;;;19.15;3.65;;;;;;;;;;5028236;28;20045;-64
2021/03/15 13:54:58;;;;;;;6.90;1.77;;;;;;;;;;5020448;28;20046;-62
2021/03/15 13:57:44;;;;;;;5.60;1.83;;;;;;;;;;5030236;28;20041;-62
2021/03/15 14:00:38;;;;;;;13.18;2.85;;;;;;;;;;5024229;28;20049;-63
2021/03/15 14:03:42;;;;;;;18.20;3.13;;;;;;;;;;5029027;28;20034;-63
2021/03/15 14:06:48;;;;;;;13.50;3.17;;;;;;;;;;5053254;28;20124;-63
2021/03/15 14:09:38;;;;;;;14.48;2.45;;;;;;;;;;5019421;28;20053;-63
2021/03/15 14:12:40;;;;;;;14.85;2.30;;;;;;;;;;5025105;28;20037;-63
2021/03/15 14:15:33;;;;;;;15.82;2.65;;;;;;;;;;5017543;28;20038;-62
2021/03/15 14:18:27;;;;;;;13.13;2.50;;;;;;;;;;5031483;28;20088;-63
2021/03/15 14:21:28;;;;;;;20.85;2.95;;;;;;;;;;5026461;28;20045;-62
2021/03/15 14:24:15;;;;;;;12.20;2.60;;;;;;;;;;5031318;28;20048;-63
2021/03/15 14:27:02;;;;;;;16.92;3.17;;;;;;;;;;5028894;28;20045;-63
2021/03/15 14:29:47;;;;;;;13.57;2.60;;;;;;;;;;5048923;28;20049;-62
2021/03/15 14:32:34;;;;;;;18.10;3.03;;;;;;;;;;5041840;28;20045;-63
2021/03/15 14:35:32;;;;;;;18.50;3.15;;;;;;;;;;5024972;28;20050;-63
2021/03/15 14:38:28;;;;;;;17.27;3.42;;;;;;;;;;5025528;28;20128;-63
2021/03/15 14:41:14;;;;;;;14.80;2.33;;;;;;;;;;5040626;28;20049;-64
2021/03/15 14:43:59;;;;;;;17.45;3.03;;;;;;;;;;5040295;28;20049;-63
2021/03/15 14:47:00;;;;;;;16.30;2.72;;;;;;;;;;5025223;28;20053;-64
2021/03/15 14:49:56;;;;;;;20.75;3.80;;;;;;;;;;5034198;28;20045;-64
2021/03/15 14:52:54;;;;;;;15.82;2.58;;;;;;;;;;5019389;28;20046;-63
2021/03/15 14:55:41;;;;;;;16.13;2.72;;;;;;;;;;5015455;28;20098;-62
2021/03/15 14:58:27;;;;;;;18.17;3.10;;;;;;;;;;5014652;28;20041;-63
2021/03/15 15:01:14;;;;;;;18.85;3.75;;;;;;;;;;5035817;28;20041;-63
2021/03/15 15:04:01;;;;;;;21.15;3.85;;;;;;;;;;5024930;28;20053;-63
2021/03/15 15:06:48;;;;;;;12.63;2.80;;;;;;;;;;5039759;28;20045;-63
2021/03/15 15:09:46;;;;;;;16.15;3.08;;;;;;;;;;5016946;28;20042;-62
2021/03/15 15:12:37;;;;;;;12.15;3.30;;;;;;;;;;5013025;28;20050;-64
2021/03/15 15:15:45;;;;;;;18.67;3.75;;;;;;;;;;5010793;28;20446;-62
2021/03/15 15:18:35;;;;;;;18.42;3.72;;;;;;;;;;5037428;28;20412;-63
2021/03/15 15:21:22;;;;;;;18.17;3.55;;;;;;;;;;5025289;28;20049;-63
2021/03/15 15:24:08;;;;;;;25.25;3.80;;;;;;;;;;5019059;28;20050;-60
2021/03/15 15:26:54;;;;;;;18.00;4.57;;;;;;;;;;5020532;28;20125;-63
2021/03/15 15:29:39;;;;;;;17.40;3.30;;;;;;;;;;5021106;28;20470;-63
2021/03/15 15:32:25;;;;;;;21.33;4.47;;;;;;;;;;5036028;28;20045;-63
2021/03/15 15:35:10;;;;;;;18.92;3.55;;;;;;;;;;5039529;28;20053;-63
2021/03/15 15:37:56;;;;;;;16.33;4.38;;;;;;;;;;5035435;28;20045;-63
2021/03/15 15:40:41;;;;;;;18.77;3.58;;;;;;;;;;5021272;28;20070;-63
2021/03/15 15:43:26;;;;;;;21.02;3.85;;;;;;;;;;5041355;28;20042;-62
2021/03/15 15:46:12;;;;;;;20.88;4.53;;;;;;;;;;5040299;28;20053;-64
2021/03/15 15:48:58;;;;;;;20.65;3.35;;;;;;;;;;5040725;28;20042;-63
2021/03/15 15:51:43;;;;;;;19.70;4.70;;;;;;;;;;5018599;28;20042;-63
2021/03/15 15:54:31;;;;;;;25.05;4.30;;;;;;;;;;5022844;28;20080;-62
2021/03/15 15:57:16;;;;;;;17.70;3.92;;;;;;;;;;5035117;28;20042;-64
2021/03/15 16:00:01;;;;;;;21.17;4.07;;;;;;;;;;5036587;28;20124;-63
2021/03/15 16:02:47;;;;;;;20.10;2.83;;;;;;;;;;5033957;28;20124;-64
2021/03/15 16:05:33;;;;;;;23.25;3.75;;;;;;;;;;5029793;28;20054;-64
2021/03/15 16:08:18;;;;;;;18.80;4.95;;;;;;;;;;5044752;28;20045;-64
2021/03/15 16:11:04;;;;;;;20.20;4.47;;;;;;;;;;5023458;28;20050;-63
2021/03/15 16:13:49;;;;;;;15.38;3.42;;;;;;;;;;5033756;28;20491;-62
2021/03/15 16:16:35;;;;;;;15.55;3.22;;;;;;;;;;5042646;28;20041;-63
2021/03/15 16:19:20;;;;;;;21.85;4.03;;;;;;;;;;5042220;28;20030;-64
2021/03/15 16:22:08;;;;;;;20.95;3.85;;;;;;;;;;5039931;28;20089;-63
2021/03/15 16:24:54;;;;;;;19.92;3.33;;;;;;;;;;5038883;28;20141;-63
2021/03/15 16:27:39;;;;;;;15.32;3.70;;;;;;;;;;5041502;28;20053;-63
2021/03/15 16:30:28;;;;;;;21.15;3.67;;;;;;;;;;5025913;28;20395;-63
2021/03/15 16:33:13;;;;;;;16.27;5.50;;;;;;;;;;5025232;28;20065;-64
2021/03/15 16:35:58;;;;;;;18.83;3.72;;;;;;;;;;5042266;28;20041;-63
2021/03/15 16:38:44;;;;;;;22.42;3.15;;;;;;;;;;5039429;28;20068;-62
2021/03/15 16:41:29;;;;;;;17.10;3.15;;;;;;;;;;5039518;28;20073;-64